createdAt,value
2022-09-24T00:01:16.431Z,11.43
2022-09-24T00:11:21.565Z,11.19
2022-09-24T00:21:24.120Z,11.21
2022-09-24T00:31:25.593Z,11.15
2022-09-24T00:41:26.949Z,11.05
2022-09-24T00:51:28.143Z,11.04
2022-09-24T01:01:30.496Z,10.99
2022-09-24T01:11:31.807Z,10.87
2022-09-24T01:21:33.123Z,10.65
2022-09-24T01:31:34.706Z,10.47
2022-09-24T01:41:36.322Z,10.34
2022-09-24T01:51:38.208Z,10.20
2022-09-24T02:01:39.567Z,10.03
2022-09-24T02:11:41.507Z,10.11
2022-09-24T02:21:42.811Z,10.17
2022-09-24T02:31:44.212Z,10.33
2022-09-24T02:41:47.833Z,10.17
2022-09-24T02:51:49.153Z,9.92
2022-09-24T03:01:50.583Z,9.99
2022-09-24T03:11:52.456Z,9.99
2022-09-24T03:21:53.827Z,9.97
2022-09-24T03:31:55.177Z,9.98
2022-09-24T03:41:56.558Z,9.93
2022-09-24T03:51:57.909Z,9.78
2022-09-24T04:01:59.245Z,9.60
2022-09-24T04:12:00.651Z,9.38
2022-09-24T04:22:02.008Z,9.38
2022-09-24T04:32:03.559Z,9.35
2022-09-24T04:42:04.865Z,9.49
2022-09-24T04:52:06.176Z,9.64
2022-09-24T05:02:09.778Z,9.59
2022-09-24T05:12:11.475Z,9.56
2022-09-24T05:22:12.813Z,9.70
2022-09-24T05:32:15.265Z,9.86
2022-09-24T05:42:16.654Z,9.88
2022-09-24T05:52:17.967Z,9.95
2022-09-24T06:02:19.329Z,9.96
2022-09-24T06:12:23.634Z,10.01
2022-09-24T06:22:28.415Z,10.22
2022-09-24T06:32:30.268Z,10.48
2022-09-24T06:42:32.600Z,10.31
2022-09-24T06:52:33.919Z,10.63
2022-09-24T07:02:35.268Z,11.08
2022-09-24T07:12:36.934Z,10.81
2022-09-24T07:22:38.178Z,11.12
2022-09-24T07:32:39.378Z,11.23
2022-09-24T07:42:40.658Z,11.45
2022-09-24T07:52:42.001Z,11.66
2022-09-24T08:02:43.768Z,11.99
2022-09-24T08:12:45.067Z,12.41
2022-09-24T08:22:46.340Z,12.55
2022-09-24T08:32:50.284Z,12.76
2022-09-24T08:42:51.659Z,13.16
2022-09-24T08:52:54.312Z,13.24
2022-09-24T09:02:55.679Z,13.32
2022-09-24T09:12:57.052Z,13.85
2022-09-24T09:22:58.311Z,14.20
2022-09-24T09:32:59.620Z,14.08
2022-09-24T09:43:02.969Z,14.27
2022-09-24T09:53:05.060Z,14.49
2022-09-24T10:03:06.819Z,14.77
2022-09-24T10:13:09.034Z,15.28
2022-09-24T10:23:10.289Z,16.00
2022-09-24T10:33:11.604Z,16.89
2022-09-24T10:43:12.889Z,16.80
2022-09-24T10:53:14.167Z,16.70
2022-09-24T11:03:15.827Z,16.53
2022-09-24T11:13:17.395Z,16.75
2022-09-24T11:23:18.683Z,17.56
2022-09-24T11:33:23.034Z,17.83
2022-09-24T11:43:24.749Z,17.56
2022-09-24T11:53:26.008Z,17.81
2022-09-24T12:03:27.321Z,18.83
2022-09-24T12:13:28.627Z,18.78
2022-09-24T12:23:29.989Z,18.82
2022-09-24T12:33:31.458Z,18.86
2022-09-24T12:43:32.728Z,19.15
2022-09-24T12:53:34.328Z,19.70
2022-09-24T13:03:35.654Z,19.69
2022-09-24T13:13:36.940Z,19.78
2022-09-24T13:23:38.753Z,19.43
2022-09-24T13:33:40.023Z,19.66
2022-09-24T13:43:41.363Z,19.45
2022-09-24T13:53:42.647Z,19.40
2022-09-24T14:03:43.836Z,19.26
2022-09-24T14:13:46.119Z,18.97
2022-09-24T14:23:47.475Z,19.14
2022-09-24T14:33:48.914Z,18.98
2022-09-24T14:43:50.246Z,19.06
2022-09-24T14:53:51.443Z,19.02
2022-09-24T15:03:52.634Z,18.90
2022-09-24T15:13:54.049Z,18.86
2022-09-24T15:23:55.384Z,18.82
2022-09-24T15:33:56.656Z,18.94
2022-09-24T15:43:58.282Z,19.11
2022-09-24T15:53:59.567Z,18.72
2022-09-24T16:04:00.777Z,18.37
2022-09-24T16:14:01.970Z,18.20
2022-09-24T16:24:03.320Z,18.01
2022-09-24T16:34:04.587Z,17.72
2022-09-24T16:44:06.875Z,17.43
2022-09-24T16:54:08.169Z,17.27
2022-09-24T17:04:09.677Z,16.90
2022-09-24T17:14:13.762Z,16.36
2022-09-24T17:24:20.611Z,15.93
2022-09-24T17:34:23.080Z,15.57
2022-09-24T17:44:24.338Z,15.51
2022-09-24T17:54:26.901Z,15.44
2022-09-24T18:04:31.313Z,15.24
2022-09-24T18:14:32.746Z,14.96
2022-09-24T18:24:34.204Z,14.61
2022-09-24T18:34:35.539Z,14.47
2022-09-24T18:44:36.829Z,14.48
2022-09-24T18:54:38.317Z,14.31
2022-09-24T19:04:39.589Z,14.19
2022-09-24T19:14:41.637Z,14.06
2022-09-24T19:24:42.913Z,14.04
2022-09-24T19:34:44.221Z,14.05
2022-09-24T19:44:45.521Z,14.00
2022-09-24T19:54:51.222Z,13.93
2022-09-24T20:04:52.715Z,13.88
2022-09-24T20:14:54.018Z,13.88
2022-09-24T20:24:55.314Z,13.88
2022-09-24T20:34:56.648Z,13.88
2022-09-24T20:45:01.340Z,13.81
2022-09-24T20:55:07.245Z,13.82
2022-09-24T21:05:08.622Z,13.75
2022-09-24T21:15:10.397Z,13.80
2022-09-24T21:25:11.772Z,13.73
2022-09-24T21:35:13.074Z,13.54
2022-09-24T21:45:14.467Z,13.49
2022-09-24T21:55:15.764Z,13.42
2022-09-24T22:05:19.822Z,13.48
2022-09-24T22:15:22.871Z,13.44
2022-09-24T22:25:24.289Z,13.41
2022-09-24T22:35:44.189Z,13.37
2022-09-24T22:45:45.541Z,13.33
2022-09-24T22:55:50.497Z,13.21
2022-09-24T23:05:53.906Z,13.08
2022-09-24T23:15:55.647Z,13.15
2022-09-24T23:25:56.963Z,13.08
2022-09-24T23:35:58.239Z,13.00
2022-09-24T23:45:59.541Z,13.01
2022-09-24T23:56:00.883Z,13.02
